Time;durP1;ratioP1;P1;durP2;ratioP2;P2;SDS_P1;SDS_P2;PMS_P1;PMS_P2;Temp;Humidity;BMP_temperature;BMP_pressure;BME280_temperature;BME280_humidity;BME280_pressure;Samples;Min_cycle;Max_cycle;Signal;HPM_P1;HPM_P2
2022/12/08 00:00:06;;;;;;;13.55;5.20;;;;;;;;;;5113239;28;20121;-81
2022/12/08 00:02:32;;;;;;;14.90;6.22;;;;;;;;;;5113846;28;20031;-81
2022/12/08 00:10:27;;;;;;;11.55;5.00;;;;;;;;;;5117172;28;20050;-81
2022/12/08 00:12:53;;;;;;;10.38;5.20;;;;;;;;;;5132748;27;20495;-81
2022/12/08 00:15:19;;;;;;;11.02;5.22;;;;;;;;;;5132752;27;20513;-81
2022/12/08 00:17:45;;;;;;;12.88;5.38;;;;;;;;;;5114636;28;20384;-81
2022/12/08 00:20:11;;;;;;;14.27;5.80;;;;;;;;;;5114728;28;20392;-81
2022/12/08 00:22:37;;;;;;;11.25;5.43;;;;;;;;;;5097435;28;20488;-81
2022/12/08 00:25:04;;;;;;;8.43;5.72;;;;;;;;;;5097502;28;20113;-81
2022/12/08 00:27:30;;;;;;;13.93;6.05;;;;;;;;;;5114355;28;20392;-81
2022/12/08 00:29:56;;;;;;;10.50;5.93;;;;;;;;;;5114794;28;20118;-81
2022/12/08 00:32:22;;;;;;;9.70;5.60;;;;;;;;;;5132649;28;20023;-81
2022/12/08 00:34:48;;;;;;;9.63;5.50;;;;;;;;;;5114123;28;20076;-81
2022/12/08 00:37:14;;;;;;;6.93;5.07;;;;;;;;;;5132693;28;20108;-81
2022/12/08 00:39:40;;;;;;;14.98;5.10;;;;;;;;;;5114396;28;20076;-81
2022/12/08 00:42:12;;;;;;;10.38;4.95;;;;;;;;;;5114688;28;20023;-81
2022/12/08 00:44:38;;;;;;;9.02;4.82;;;;;;;;;;5098226;28;20027;-81
2022/12/08 00:47:05;;;;;;;8.20;4.30;;;;;;;;;;5133895;27;20507;-81
2022/12/08 00:49:31;;;;;;;12.63;5.13;;;;;;;;;;5136774;27;20027;-81
2022/12/08 00:51:57;;;;;;;7.85;5.40;;;;;;;;;;5117915;27;20054;-81
2022/12/08 00:54:23;;;;;;;7.60;5.55;;;;;;;;;;5118383;27;20102;-81
2022/12/08 00:56:49;;;;;;;8.85;5.35;;;;;;;;;;5118144;27;20057;-81
2022/12/08 00:59:15;;;;;;;11.07;6.90;;;;;;;;;;5118451;27;20464;-81
2022/12/08 01:01:43;;;;;;;7.45;6.05;;;;;;;;;;5118404;27;20038;-82
2022/12/08 01:04:11;;;;;;;14.15;6.80;;;;;;;;;;5136561;27;20027;-81
2022/12/08 01:06:38;;;;;;;9.00;6.05;;;;;;;;;;5136316;27;20396;-81
2022/12/08 01:09:05;;;;;;;10.50;6.00;;;;;;;;;;5117727;27;20027;-81
2022/12/08 01:11:31;;;;;;;9.45;5.72;;;;;;;;;;5117840;27;20031;-81
2022/12/08 01:13:57;;;;;;;12.90;6.88;;;;;;;;;;5136311;27;20031;-81
2022/12/08 01:16:25;;;;;;;10.73;6.15;;;;;;;;;;5117700;27;20118;-81
2022/12/08 01:18:51;;;;;;;9.90;6.40;;;;;;;;;;5136019;27;20031;-81
2022/12/08 01:21:17;;;;;;;9.38;6.38;;;;;;;;;;5117344;27;20023;-81
2022/12/08 01:23:44;;;;;;;9.18;6.40;;;;;;;;;;5135968;27;20055;-81
2022/12/08 01:26:11;;;;;;;12.68;6.93;;;;;;;;;;5117758;27;20114;-81
2022/12/08 01:28:37;;;;;;;11.05;6.80;;;;;;;;;;5100623;27;20027;-81
2022/12/08 01:31:03;;;;;;;12.70;7.38;;;;;;;;;;5135866;27;20027;-81
2022/12/08 01:33:29;;;;;;;14.48;8.68;;;;;;;;;;5135715;27;20038;-81
2022/12/08 01:35:56;;;;;;;15.48;9.25;;;;;;;;;;5100320;27;20031;-81
2022/12/08 01:38:22;;;;;;;19.67;9.65;;;;;;;;;;5117440;27;20019;-81
2022/12/08 01:40:48;;;;;;;17.13;10.80;;;;;;;;;;5135572;27;20019;-81
2022/12/08 01:43:19;;;;;;;17.95;10.60;;;;;;;;;;5117228;27;20022;-81
2022/12/08 01:45:46;;;;;;;17.40;11.27;;;;;;;;;;5116925;27;20084;-81
2022/12/08 01:48:25;;;;;;;16.92;11.25;;;;;;;;;;5135911;27;20440;-81
2022/12/08 01:50:51;;;;;;;16.08;11.00;;;;;;;;;;5116973;27;20027;-81
2022/12/08 01:53:26;;;;;;;20.75;11.63;;;;;;;;;;5116810;27;20062;-81
2022/12/08 01:55:54;;;;;;;19.70;10.90;;;;;;;;;;5116779;27;20019;-81
2022/12/08 01:58:26;;;;;;;17.98;10.63;;;;;;;;;;5134773;27;20104;-81
2022/12/08 02:00:52;;;;;;;15.30;9.75;;;;;;;;;;5117024;27;20023;-81
2022/12/08 02:03:27;;;;;;;15.02;10.30;;;;;;;;;;5116912;27;20080;-81
2022/12/08 02:05:54;;;;;;;12.93;8.73;;;;;;;;;;5116851;27;20055;-81
2022/12/08 02:08:21;;;;;;;13.45;8.32;;;;;;;;;;5116754;27;20024;-81
2022/12/08 02:10:48;;;;;;;11.80;7.55;;;;;;;;;;5116792;27;20418;-81
2022/12/08 02:13:16;;;;;;;11.05;7.45;;;;;;;;;;5116724;27;20019;-81
2022/12/08 02:16:01;;;;;;;11.55;7.40;;;;;;;;;;5135002;27;20098;-81
2022/12/08 02:18:47;;;;;;;11.27;7.03;;;;;;;;;;5135064;27;20384;-81
2022/12/08 02:21:18;;;;;;;11.43;7.35;;;;;;;;;;5116250;27;20019;-81
2022/12/08 02:23:44;;;;;;;11.05;6.63;;;;;;;;;;5134947;27;20053;-81
2022/12/08 02:26:28;;;;;;;12.43;6.70;;;;;;;;;;5116468;27;20023;-81
2022/12/08 02:29:13;;;;;;;10.38;7.28;;;;;;;;;;5115978;27;20072;-81
2022/12/08 02:31:45;;;;;;;14.73;7.55;;;;;;;;;;5134592;27;20457;-81
2022/12/08 02:34:11;;;;;;;16.48;8.45;;;;;;;;;;5116361;27;20044;-81
2022/12/08 02:36:37;;;;;;;12.93;8.35;;;;;;;;;;5134659;27;20038;-81
2022/12/08 02:39:22;;;;;;;11.48;8.00;;;;;;;;;;5134456;27;20441;-81
2022/12/08 02:41:59;;;;;;;14.25;9.50;;;;;;;;;;5116068;27;20026;-81
2022/12/08 02:44:28;;;;;;;17.73;10.75;;;;;;;;;;5116066;27;20026;-81
2022/12/08 02:47:13;;;;;;;15.52;10.57;;;;;;;;;;5134506;27;20042;-81
2022/12/08 02:49:39;;;;;;;18.00;11.95;;;;;;;;;;5134297;27;20520;-80
2022/12/08 02:52:07;;;;;;;18.88;12.32;;;;;;;;;;5133915;27;20050;-81
2022/12/08 02:54:35;;;;;;;20.08;13.00;;;;;;;;;;5134231;27;20438;-81
2022/12/08 02:57:11;;;;;;;19.27;12.93;;;;;;;;;;5115618;27;20043;-81
2022/12/08 02:59:49;;;;;;;20.60;13.25;;;;;;;;;;5134209;27;20031;-81
2022/12/08 03:02:34;;;;;;;20.83;13.73;;;;;;;;;;5134180;27;20020;-80
2022/12/08 03:05:13;;;;;;;25.35;13.93;;;;;;;;;;5134063;27;20034;-81
2022/12/08 03:07:48;;;;;;;24.83;13.98;;;;;;;;;;5115274;27;20461;-81
2022/12/08 03:10:21;;;;;;;20.80;13.02;;;;;;;;;;5114759;27;20026;-81
2022/12/08 03:12:53;;;;;;;23.15;13.73;;;;;;;;;;5115569;27;20415;-81
2022/12/08 03:15:20;;;;;;;25.85;13.27;;;;;;;;;;5115508;27;20023;-81
2022/12/08 03:17:49;;;;;;;21.42;13.18;;;;;;;;;;5115293;27;20032;-81
2022/12/08 03:20:18;;;;;;;19.60;12.38;;;;;;;;;;5133835;27;20110;-81
2022/12/08 03:22:45;;;;;;;19.88;11.02;;;;;;;;;;5115275;27;20031;-81
2022/12/08 03:25:13;;;;;;;17.98;10.80;;;;;;;;;;5098302;27;20023;-81
2022/12/08 03:27:39;;;;;;;18.75;10.05;;;;;;;;;;5133792;27;20031;-81
2022/12/08 03:30:05;;;;;;;14.95;9.27;;;;;;;;;;5115392;27;20028;-81
2022/12/08 03:32:46;;;;;;;13.63;7.60;;;;;;;;;;5115088;27;20122;-81
2022/12/08 03:35:14;;;;;;;10.57;5.93;;;;;;;;;;5115207;27;20019;-81
2022/12/08 03:37:41;;;;;;;12.50;6.30;;;;;;;;;;5114995;27;20019;-81
2022/12/08 03:40:08;;;;;;;11.13;4.82;;;;;;;;;;5115179;27;20027;-81
2022/12/08 03:42:34;;;;;;;8.68;4.57;;;;;;;;;;5133342;27;20117;-81
2022/12/08 03:45:00;;;;;;;10.10;4.03;;;;;;;;;;5115349;27;20023;-81
2022/12/08 03:47:26;;;;;;;7.68;4.10;;;;;;;;;;5098022;27;20080;-81
2022/12/08 03:49:52;;;;;;;8.10;3.50;;;;;;;;;;5114887;27;20035;-81
2022/12/08 03:52:18;;;;;;;9.73;4.00;;;;;;;;;;5114923;27;20028;-81
2022/12/08 03:54:45;;;;;;;11.40;3.83;;;;;;;;;;5133544;27;20026;-80
2022/12/08 03:57:11;;;;;;;7.68;3.20;;;;;;;;;;5097938;27;20024;-81
2022/12/08 03:59:37;;;;;;;7.25;3.03;;;;;;;;;;5115229;28;20131;-81
2022/12/08 04:02:03;;;;;;;6.00;3.10;;;;;;;;;;5133315;27;20468;-80
2022/12/08 04:04:29;;;;;;;6.30;3.28;;;;;;;;;;5114729;27;20472;-80
2022/12/08 04:06:55;;;;;;;6.53;3.03;;;;;;;;;;5133262;28;20036;-80
2022/12/08 04:09:21;;;;;;;6.95;2.47;;;;;;;;;;5097819;27;20034;-80
2022/12/08 04:11:47;;;;;;;4.70;2.70;;;;;;;;;;5114972;28;20023;-80
2022/12/08 04:14:13;;;;;;;6.93;2.42;;;;;;;;;;5131889;27;20054;-80
2022/12/08 04:16:39;;;;;;;5.13;1.98;;;;;;;;;;5113063;28;20028;-80
2022/12/08 04:19:05;;;;;;;5.10;1.55;;;;;;;;;;5132147;28;20476;-80
2022/12/08 04:21:31;;;;;;;6.88;2.05;;;;;;;;;;5134718;27;20053;-80
2022/12/08 04:23:58;;;;;;;6.88;1.40;;;;;;;;;;5136984;27;20026;-80
2022/12/08 04:26:24;;;;;;;3.72;1.65;;;;;;;;;;5118802;27;20024;-81
2022/12/08 04:28:50;;;;;;;2.80;1.40;;;;;;;;;;5101496;27;20115;-81
2022/12/08 04:31:16;;;;;;;5.15;1.38;;;;;;;;;;5136926;27;20425;-81
2022/12/08 04:33:42;;;;;;;5.40;1.48;;;;;;;;;;5118532;27;20387;-80
2022/12/08 04:36:08;;;;;;;5.03;1.40;;;;;;;;;;5101685;27;20080;-80
2022/12/08 04:38:34;;;;;;;2.38;1.40;;;;;;;;;;5137059;27;20027;-80
2022/12/08 04:41:01;;;;;;;4.75;1.42;;;;;;;;;;5118240;27;20490;-80
2022/12/08 04:43:27;;;;;;;2.97;1.50;;;;;;;;;;5136916;27;20380;-80
2022/12/08 04:45:53;;;;;;;2.90;1.65;;;;;;;;;;5118532;27;20032;-80
2022/12/08 04:48:19;;;;;;;4.82;1.52;;;;;;;;;;5118235;27;20038;-80
2022/12/08 04:50:45;;;;;;;4.35;2.00;;;;;;;;;;5118266;27;20035;-80
2022/12/08 04:53:12;;;;;;;4.10;1.65;;;;;;;;;;5136498;27;20039;-80
2022/12/08 04:55:40;;;;;;;9.20;2.55;;;;;;;;;;5118402;27;20030;-80
2022/12/08 04:58:06;;;;;;;5.97;2.50;;;;;;;;;;5136554;27;20182;-80
2022/12/08 05:00:32;;;;;;;6.82;2.47;;;;;;;;;;5136567;27;20031;-80
2022/12/08 05:02:58;;;;;;;8.05;3.75;;;;;;;;;;5101208;27;20027;-80
2022/12/08 05:05:24;;;;;;;7.03;4.10;;;;;;;;;;5118286;27;20027;-80
2022/12/08 05:07:50;;;;;;;7.72;4.95;;;;;;;;;;5118266;27;20413;-80
2022/12/08 05:10:16;;;;;;;9.65;5.50;;;;;;;;;;5101022;27;20031;-80
2022/12/08 05:12:42;;;;;;;8.85;6.32;;;;;;;;;;5136708;27;20015;-80
2022/12/08 05:15:08;;;;;;;10.20;6.55;;;;;;;;;;5136304;27;20080;-80
2022/12/08 05:17:34;;;;;;;13.40;6.47;;;;;;;;;;5117668;27;20171;-80
2022/12/08 05:20:00;;;;;;;9.30;6.82;;;;;;;;;;5136322;27;20023;-80
2022/12/08 05:22:26;;;;;;;14.07;7.22;;;;;;;;;;5117865;27;20068;-80
2022/12/08 05:24:52;;;;;;;11.43;6.82;;;;;;;;;;5117722;27;20028;-80
2022/12/08 05:27:18;;;;;;;11.32;7.15;;;;;;;;;;5117789;27;20027;-80
2022/12/08 05:29:46;;;;;;;11.48;7.25;;;;;;;;;;5117843;27;20502;-80
2022/12/08 05:32:12;;;;;;;12.32;6.90;;;;;;;;;;5135340;27;20513;-80
2022/12/08 05:34:39;;;;;;;10.55;6.40;;;;;;;;;;5135820;27;20429;-80
2022/12/08 05:37:05;;;;;;;8.05;5.47;;;;;;;;;;5136035;27;20020;-80
2022/12/08 05:39:31;;;;;;;9.10;5.20;;;;;;;;;;5117642;27;20030;-80
2022/12/08 05:41:58;;;;;;;8.68;5.40;;;;;;;;;;5100470;27;20034;-80
2022/12/08 05:44:24;;;;;;;8.23;4.95;;;;;;;;;;5100617;27;20023;-80
2022/12/08 05:46:50;;;;;;;9.07;5.20;;;;;;;;;;5117301;27;20035;-80
2022/12/08 05:49:16;;;;;;;9.40;4.75;;;;;;;;;;5135640;27;20027;-80
2022/12/08 05:51:42;;;;;;;7.45;4.38;;;;;;;;;;5117209;27;20026;-80
2022/12/08 05:54:08;;;;;;;6.60;4.50;;;;;;;;;;5135561;27;20051;-80
2022/12/08 05:56:34;;;;;;;9.68;4.80;;;;;;;;;;5117228;27;20023;-80
2022/12/08 05:59:00;;;;;;;11.55;4.25;;;;;;;;;;5135379;27;20106;-80
2022/12/08 06:01:28;;;;;;;7.70;4.68;;;;;;;;;;5116979;27;20173;-80
2022/12/08 06:03:54;;;;;;;6.20;4.00;;;;;;;;;;5135397;27;20027;-80
2022/12/08 06:06:20;;;;;;;9.48;4.85;;;;;;;;;;5117015;27;20027;-80
2022/12/08 06:08:46;;;;;;;8.75;4.32;;;;;;;;;;5116737;27;20027;-80
2022/12/08 06:11:18;;;;;;;7.97;3.90;;;;;;;;;;5099997;27;20080;-80
2022/12/08 06:13:45;;;;;;;6.32;4.25;;;;;;;;;;5135576;27;20489;-80
2022/12/08 06:16:11;;;;;;;6.32;3.65;;;;;;;;;;5116604;27;20046;-80
2022/12/08 06:18:37;;;;;;;6.13;3.45;;;;;;;;;;5117084;27;20068;-80
2022/12/08 06:21:07;;;;;;;12.38;3.53;;;;;;;;;;5135039;27;20023;-80
2022/12/08 06:23:33;;;;;;;6.72;3.42;;;;;;;;;;5116803;27;20023;-80
2022/12/08 06:26:03;;;;;;;7.07;3.15;;;;;;;;;;5116524;27;20076;-80
2022/12/08 06:28:30;;;;;;;3.85;2.50;;;;;;;;;;5134715;27;20048;-80
2022/12/08 06:30:56;;;;;;;5.80;2.63;;;;;;;;;;5134827;27;20019;-80
2022/12/08 06:33:22;;;;;;;6.68;2.95;;;;;;;;;;5134841;27;20024;-80
2022/12/08 06:35:48;;;;;;;5.00;2.88;;;;;;;;;;5099307;27;20060;-80
2022/12/08 06:38:15;;;;;;;5.95;2.50;;;;;;;;;;5099404;27;20494;-80
2022/12/08 06:40:41;;;;;;;6.45;3.13;;;;;;;;;;5116338;27;20027;-80
2022/12/08 06:43:07;;;;;;;4.65;2.67;;;;;;;;;;5134679;27;20449;-80
2022/12/08 06:45:33;;;;;;;9.32;3.42;;;;;;;;;;5116447;27;20388;-80
2022/12/08 06:48:01;;;;;;;7.53;3.10;;;;;;;;;;5116595;27;20472;-80
2022/12/08 06:50:27;;;;;;;6.15;3.53;;;;;;;;;;5134488;27;20099;-80
2022/12/08 06:52:53;;;;;;;8.18;3.20;;;;;;;;;;5115688;27;20044;-80
2022/12/08 06:55:19;;;;;;;8.95;3.35;;;;;;;;;;5115653;27;20448;-80
2022/12/08 06:57:45;;;;;;;8.15;3.22;;;;;;;;;;5115945;27;20053;-80
2022/12/08 07:00:12;;;;;;;8.93;3.10;;;;;;;;;;5115844;27;20023;-80
2022/12/08 07:02:38;;;;;;;5.05;3.00;;;;;;;;;;5099102;27;20027;-80
2022/12/08 07:05:04;;;;;;;6.13;2.90;;;;;;;;;;5134159;27;20058;-80
2022/12/08 07:07:30;;;;;;;6.05;2.88;;;;;;;;;;5098723;27;20076;-80
2022/12/08 07:09:56;;;;;;;4.95;2.67;;;;;;;;;;5115380;27;20047;-80
2022/12/08 07:12:22;;;;;;;8.10;2.80;;;;;;;;;;5133884;27;20023;-80
2022/12/08 07:14:48;;;;;;;5.63;2.50;;;;;;;;;;5115596;27;20080;-80
2022/12/08 07:17:14;;;;;;;5.95;2.28;;;;;;;;;;5115410;27;20027;-80
2022/12/08 07:19:40;;;;;;;4.55;2.55;;;;;;;;;;5115665;27;20023;-80
2022/12/08 07:22:06;;;;;;;5.13;2.25;;;;;;;;;;5115413;27;20468;-80
2022/12/08 07:24:32;;;;;;;4.28;2.28;;;;;;;;;;5133903;27;20495;-80
2022/12/08 07:26:58;;;;;;;8.65;2.45;;;;;;;;;;5098254;27;20096;-80
2022/12/08 07:29:24;;;;;;;5.55;2.20;;;;;;;;;;5115042;27;20118;-80
2022/12/08 07:31:50;;;;;;;4.03;2.22;;;;;;;;;;5114915;27;20030;-80
2022/12/08 07:34:16;;;;;;;5.35;2.13;;;;;;;;;;5133106;27;20056;-80
2022/12/08 07:36:42;;;;;;;3.85;2.33;;;;;;;;;;5097877;27;20035;-80
2022/12/08 07:39:09;;;;;;;6.75;2.45;;;;;;;;;;5114569;27;20030;-80
2022/12/08 07:41:35;;;;;;;4.15;1.83;;;;;;;;;;5133334;27;20387;-80
2022/12/08 07:44:01;;;;;;;5.10;2.13;;;;;;;;;;5133056;27;20015;-80
2022/12/08 07:46:27;;;;;;;4.28;1.70;;;;;;;;;;5114498;27;20030;-80
2022/12/08 07:48:54;;;;;;;3.28;1.83;;;;;;;;;;5113724;27;20570;-80
2022/12/08 07:51:20;;;;;;;3.63;1.80;;;;;;;;;;5110532;27;20015;-81
2022/12/08 07:53:47;;;;;;;4.00;2.05;;;;;;;;;;5113246;27;20117;-80
2022/12/08 07:56:13;;;;;;;3.65;2.00;;;;;;;;;;5131084;27;20019;-81
2022/12/08 07:58:40;;;;;;;4.03;2.45;;;;;;;;;;5110818;27;20019;-79
2022/12/08 08:01:17;;;;;;;6.53;2.65;;;;;;;;;;5113433;28;20080;-80
2022/12/08 08:03:43;;;;;;;4.82;2.60;;;;;;;;;;5114309;27;20425;-80
2022/12/08 08:06:09;;;;;;;6.18;2.42;;;;;;;;;;5094665;28;20430;-80
2022/12/08 08:08:35;;;;;;;5.97;2.80;;;;;;;;;;5077611;28;20123;-80
2022/12/08 08:11:01;;;;;;;6.20;2.70;;;;;;;;;;5113943;28;20054;-79
2022/12/08 08:13:27;;;;;;;5.38;3.00;;;;;;;;;;5098098;28;20023;-79
2022/12/08 08:15:53;;;;;;;5.80;2.97;;;;;;;;;;5114902;28;20027;-80
2022/12/08 08:18:19;;;;;;;6.60;3.08;;;;;;;;;;5114925;28;20054;-80
2022/12/08 08:20:45;;;;;;;6.43;2.97;;;;;;;;;;5114661;28;20050;-80
2022/12/08 08:23:11;;;;;;;8.07;2.97;;;;;;;;;;5094241;28;20028;-80
2022/12/08 08:25:37;;;;;;;8.25;2.90;;;;;;;;;;5093302;28;20031;-80
2022/12/08 08:28:03;;;;;;;4.28;2.72;;;;;;;;;;5092971;28;20032;-80
2022/12/08 08:30:29;;;;;;;9.30;3.10;;;;;;;;;;5093877;28;20032;-81
2022/12/08 08:32:55;;;;;;;8.30;3.20;;;;;;;;;;5112197;28;20069;-81
2022/12/08 08:35:21;;;;;;;9.13;3.15;;;;;;;;;;5093958;28;20031;-80
2022/12/08 08:37:47;;;;;;;5.07;2.80;;;;;;;;;;5093645;28;20028;-80
2022/12/08 08:40:13;;;;;;;3.95;2.65;;;;;;;;;;5094512;28;20020;-80
2022/12/08 08:42:39;;;;;;;4.53;2.80;;;;;;;;;;5094385;28;20036;-81
2022/12/08 08:45:06;;;;;;;4.85;2.78;;;;;;;;;;5094355;28;20104;-81
2022/12/08 08:47:32;;;;;;;4.13;2.60;;;;;;;;;;5112248;28;20036;-81
2022/12/08 08:49:58;;;;;;;4.60;2.92;;;;;;;;;;5093889;28;20096;-80
2022/12/08 08:52:24;;;;;;;3.53;2.22;;;;;;;;;;5094084;28;20023;-81
2022/12/08 08:54:50;;;;;;;4.93;2.30;;;;;;;;;;5093719;28;20491;-81
2022/12/08 08:57:16;;;;;;;5.32;2.47;;;;;;;;;;5094097;28;20084;-81
2022/12/08 08:59:42;;;;;;;3.53;1.70;;;;;;;;;;5096920;28;20061;-81
2022/12/08 09:02:15;;;;;;;3.00;2.08;;;;;;;;;;5116203;28;20035;-81
2022/12/08 09:04:41;;;;;;;3.38;1.90;;;;;;;;;;5132863;27;20019;-81
2022/12/08 09:07:07;;;;;;;5.63;2.10;;;;;;;;;;5132570;27;20028;-81
2022/12/08 09:09:33;;;;;;;3.65;2.40;;;;;;;;;;5136081;27;20031;-81
2022/12/08 09:11:59;;;;;;;4.13;1.95;;;;;;;;;;5118120;27;20053;-81
2022/12/08 09:14:26;;;;;;;4.20;2.40;;;;;;;;;;5101242;27;20027;-81
2022/12/08 09:16:52;;;;;;;4.80;2.25;;;;;;;;;;5118178;27;20423;-81
2022/12/08 09:19:18;;;;;;;2.85;1.80;;;;;;;;;;5117108;27;20034;-81
2022/12/08 09:21:44;;;;;;;3.85;1.95;;;;;;;;;;5098199;28;20028;-81
2022/12/08 09:24:14;;;;;;;4.00;1.80;;;;;;;;;;5114084;28;20143;-82
2022/12/08 09:26:40;;;;;;;3.78;1.85;;;;;;;;;;5097434;28;20023;-81
2022/12/08 09:29:07;;;;;;;3.45;1.80;;;;;;;;;;5113858;28;20367;-81
2022/12/08 09:31:33;;;;;;;2.58;1.15;;;;;;;;;;5114346;28;20076;-81
2022/12/08 09:33:59;;;;;;;8.13;1.40;;;;;;;;;;5114058;28;20079;-81
2022/12/08 09:36:25;;;;;;;3.70;1.45;;;;;;;;;;5114087;28;20023;-81
2022/12/08 09:38:53;;;;;;;4.70;1.00;;;;;;;;;;5115336;28;20023;-81
2022/12/08 09:41:19;;;;;;;4.28;1.20;;;;;;;;;;5113914;28;20406;-81
2022/12/08 09:44:04;;;;;;;1.83;1.20;;;;;;;;;;5113935;28;20027;-81
2022/12/08 09:46:31;;;;;;;9.63;5.70;;;;;;;;;;5114797;28;20035;-82
2022/12/08 09:48:58;;;;;;;49.25;7.15;;;;;;;;;;5116806;27;20027;-81
2022/12/08 09:51:26;;;;;;;2.53;1.50;;;;;;;;;;5116613;27;20025;-81
2022/12/08 09:54:06;;;;;;;2.95;1.65;;;;;;;;;;5116184;27;20035;-81
2022/12/08 09:56:35;;;;;;;5.03;1.90;;;;;;;;;;5116946;27;20019;-81
2022/12/08 09:59:13;;;;;;;2.17;1.30;;;;;;;;;;5117042;27;20148;-81
2022/12/08 10:01:42;;;;;;;4.10;1.30;;;;;;;;;;5117061;27;20023;-81
2022/12/08 10:04:20;;;;;;;8.52;1.95;;;;;;;;;;5100166;27;20023;-81
2022/12/08 10:06:57;;;;;;;7.85;1.45;;;;;;;;;;5116530;27;20019;-81
2022/12/08 10:09:35;;;;;;;1.98;1.08;;;;;;;;;;5116791;27;20043;-81
2022/12/08 10:12:13;;;;;;;2.00;0.85;;;;;;;;;;5117081;27;20019;-81
2022/12/08 10:14:42;;;;;;;1.95;0.75;;;;;;;;;;5135500;27;20019;-81
2022/12/08 10:17:15;;;;;;;1.27;0.80;;;;;;;;;;5116727;27;20476;-81
2022/12/08 10:19:42;;;;;;;1.38;1.00;;;;;;;;;;5134834;27;20354;-81
2022/12/08 10:22:37;;;;;;;1.85;1.00;;;;;;;;;;5099872;27;20057;-81
2022/12/08 10:25:21;;;;;;;3.83;1.08;;;;;;;;;;5113672;27;20110;-81
2022/12/08 10:27:51;;;;;;;0.80;0.65;;;;;;;;;;5116539;27;20023;-81
2022/12/08 10:30:19;;;;;;;5.15;1.00;;;;;;;;;;5116288;27;20362;-81
2022/12/08 10:32:46;;;;;;;2.47;0.85;;;;;;;;;;5115099;27;20326;-81
2022/12/08 10:35:14;;;;;;;1.77;0.60;;;;;;;;;;5115865;27;20019;-81
2022/12/08 10:37:40;;;;;;;1.05;0.65;;;;;;;;;;5115574;27;20087;-81
2022/12/08 10:40:06;;;;;;;2.17;0.80;;;;;;;;;;5099368;27;20036;-81
2022/12/08 10:42:36;;;;;;;3.28;0.90;;;;;;;;;;5115946;27;20503;-81
2022/12/08 10:45:09;;;;;;;1.45;0.77;;;;;;;;;;5116107;27;20028;-81
2022/12/08 10:47:36;;;;;;;1.48;0.80;;;;;;;;;;5115963;27;20023;-81
2022/12/08 10:50:07;;;;;;;2.58;1.05;;;;;;;;;;5134485;27;20046;-81
2022/12/08 10:52:37;;;;;;;2.22;0.90;;;;;;;;;;5115762;27;20019;-81
2022/12/08 10:55:03;;;;;;;1.25;0.90;;;;;;;;;;5129583;27;20043;-81
2022/12/08 10:57:30;;;;;;;5.78;0.90;;;;;;;;;;5098170;27;20053;-81
2022/12/08 10:59:56;;;;;;;1.83;0.95;;;;;;;;;;5099134;27;20031;-81
2022/12/08 11:02:23;;;;;;;3.70;1.15;;;;;;;;;;5098818;27;20121;-81
2022/12/08 11:04:57;;;;;;;1.25;1.00;;;;;;;;;;5098891;27;20122;-81
2022/12/08 11:07:24;;;;;;;2.55;0.90;;;;;;;;;;5115790;27;20493;-81
2022/12/08 11:09:54;;;;;;;3.50;1.40;;;;;;;;;;5115534;27;20472;-81
2022/12/08 11:12:21;;;;;;;2.40;1.25;;;;;;;;;;5115924;27;20019;-81
2022/12/08 11:14:49;;;;;;;1.85;0.95;;;;;;;;;;5115597;27;20402;-82
2022/12/08 11:17:21;;;;;;;3.05;1.00;;;;;;;;;;5115588;27;20075;-81
2022/12/08 11:19:47;;;;;;;;;;;;;;;;;;5115723;27;20117;-82
2022/12/08 11:22:26;;;;;;;1.30;0.95;;;;;;;;;;5115502;27;19948;-82
2022/12/08 11:24:59;;;;;;;5.88;1.20;;;;;;;;;;5115450;27;20027;-82
2022/12/08 11:27:25;;;;;;;2.85;0.90;;;;;;;;;;5115260;27;20030;-82
2022/12/08 11:29:51;;;;;;;2.40;1.40;;;;;;;;;;5115129;27;20030;-82
2022/12/08 11:32:17;;;;;;;2.05;1.00;;;;;;;;;;5097923;27;20110;-82
2022/12/08 11:34:55;;;;;;;1.83;1.05;;;;;;;;;;5115438;27;20108;-82
2022/12/08 11:37:24;;;;;;;2.13;0.80;;;;;;;;;;5133545;27;20550;-82
2022/12/08 11:39:52;;;;;;;2.30;0.77;;;;;;;;;;5114869;27;20035;-82
2022/12/08 11:42:20;;;;;;;2.95;1.20;;;;;;;;;;5133746;27;20019;-82
2022/12/08 11:44:52;;;;;;;1.85;1.00;;;;;;;;;;5115017;27;20043;-82
2022/12/08 11:47:18;;;;;;;;;;;;;;;;;;5115482;28;20058;-81
2022/12/08 11:49:46;;;;;;;4.43;1.02;;;;;;;;;;5114954;27;19951;-81
2022/12/08 11:52:21;;;;;;;3.58;0.90;;;;;;;;;;5133268;27;20015;-82
2022/12/08 11:55:06;;;;;;;2.85;1.00;;;;;;;;;;5094329;28;20039;-82
2022/12/08 11:57:32;;;;;;;2.63;1.45;;;;;;;;;;5094441;28;20035;-81
2022/12/08 12:00:00;;;;;;;2.00;1.08;;;;;;;;;;5105734;27;20062;-82
2022/12/08 12:02:28;;;;;;;2.65;1.10;;;;;;;;;;5127648;27;20354;-82
2022/12/08 12:05:04;;;;;;;2.30;1.10;;;;;;;;;;5108444;28;20023;-81
2022/12/08 12:07:36;;;;;;;2.80;0.90;;;;;;;;;;5099701;28;20031;-81
2022/12/08 12:10:21;;;;;;;4.20;0.70;;;;;;;;;;5114663;28;20028;-81
2022/12/08 12:12:59;;;;;;;3.83;0.70;;;;;;;;;;5114864;28;20023;-81
2022/12/08 12:15:25;;;;;;;2.80;0.75;;;;;;;;;;5133723;28;20055;-81
2022/12/08 12:17:54;;;;;;;2.05;0.77;;;;;;;;;;5114214;28;20421;-82
2022/12/08 12:20:23;;;;;;;4.57;0.98;;;;;;;;;;5133154;28;20036;-80
2022/12/08 12:22:52;;;;;;;1.88;0.75;;;;;;;;;;5132996;28;20076;-79
2022/12/08 12:25:20;;;;;;;4.60;1.20;;;;;;;;;;5111982;28;20361;-79
2022/12/08 12:27:48;;;;;;;2.33;1.20;;;;;;;;;;5113963;28;20503;-80
2022/12/08 12:30:22;;;;;;;2.40;0.75;;;;;;;;;;5132461;28;20031;-80
2022/12/08 12:32:51;;;;;;;2.38;0.55;;;;;;;;;;5113333;28;20427;-80
2022/12/08 12:35:31;;;;;;;2.15;0.73;;;;;;;;;;5132132;28;20086;-80
2022/12/08 12:38:59;;;;;;;1.02;0.65;;;;;;;;;;5132008;27;20011;-81
2022/12/08 12:40:57;;;;;;;4.35;0.55;;;;;;;;;;5132549;28;20138;-81
2022/12/08 12:43:27;;;;;;;0.75;0.50;;;;;;;;;;5117227;27;20020;-81
2022/12/08 12:46:13;;;;;;;1.85;0.57;;;;;;;;;;5136335;27;20127;-81
2022/12/08 12:48:39;;;;;;;1.92;0.80;;;;;;;;;;5136481;27;20020;-81
2022/12/08 12:51:25;;;;;;;3.22;0.98;;;;;;;;;;5118164;27;20374;-81
2022/12/08 12:53:51;;;;;;;2.42;0.80;;;;;;;;;;5117768;27;20093;-81
2022/12/08 12:56:36;;;;;;;1.77;0.65;;;;;;;;;;5117781;27;20156;-81
2022/12/08 12:59:21;;;;;;;3.80;0.70;;;;;;;;;;5118126;27;20075;-81
2022/12/08 13:01:53;;;;;;;1.40;0.60;;;;;;;;;;5117786;27;20038;-78
2022/12/08 13:04:20;;;;;;;1.00;0.70;;;;;;;;;;5117821;27;20388;-80
2022/12/08 13:06:50;;;;;;;2.03;0.77;;;;;;;;;;5118245;27;20027;-80
2022/12/08 13:09:40;;;;;;;2.47;0.70;;;;;;;;;;5117948;27;20084;-80
2022/12/08 13:12:11;;;;;;;1.27;0.70;;;;;;;;;;5107759;27;20472;-80
2022/12/08 13:14:48;;;;;;;8.90;1.63;;;;;;;;;;5136542;27;20019;-81
2022/12/08 13:17:26;;;;;;;2.58;0.90;;;;;;;;;;5136329;27;20120;-81
2022/12/08 13:19:55;;;;;;;5.68;1.17;;;;;;;;;;5117468;27;20080;-80
2022/12/08 13:22:40;;;;;;;2.65;1.10;;;;;;;;;;5117894;27;20353;-82
2022/12/08 13:25:25;;;;;;;3.05;0.93;;;;;;;;;;5117816;27;20453;-81
2022/12/08 13:27:52;;;;;;;2.03;0.93;;;;;;;;;;5117533;27;20030;-80
2022/12/08 13:30:41;;;;;;;4.07;0.80;;;;;;;;;;5136034;27;20464;-80
2022/12/08 13:33:12;;;;;;;2.55;0.70;;;;;;;;;;5117777;27;20015;-80
2022/12/08 13:35:41;;;;;;;3.92;1.00;;;;;;;;;;5117624;27;20023;-81
2022/12/08 13:38:08;;;;;;;4.32;0.82;;;;;;;;;;5117479;27;20465;-80
2022/12/08 13:40:36;;;;;;;2.63;1.00;;;;;;;;;;5100469;27;20035;-80
2022/12/08 13:43:17;;;;;;;4.45;1.23;;;;;;;;;;5117323;27;20022;-80
2022/12/08 13:45:44;;;;;;;3.60;0.80;;;;;;;;;;5135789;27;20027;-80
2022/12/08 13:48:25;;;;;;;8.25;1.02;;;;;;;;;;5135678;27;20156;-80
2022/12/08 13:51:03;;;;;;;3.15;1.25;;;;;;;;;;5135522;27;20544;-81
2022/12/08 13:53:31;;;;;;;1.88;0.80;;;;;;;;;;5116288;27;20043;-80
2022/12/08 13:56:00;;;;;;;2.35;0.88;;;;;;;;;;5117138;27;20026;-81
2022/12/08 13:58:32;;;;;;;2.25;1.00;;;;;;;;;;5100486;27;20031;-81
2022/12/08 14:01:05;;;;;;;4.53;0.83;;;;;;;;;;5116918;27;20023;-78
2022/12/08 14:03:34;;;;;;;1.60;0.65;;;;;;;;;;5116889;27;20284;-83
2022/12/08 14:06:02;;;;;;;2.25;0.70;;;;;;;;;;5117191;27;20034;-83
2022/12/08 14:08:30;;;;;;;2.88;1.10;;;;;;;;;;5116700;27;20023;-80
2022/12/08 14:11:06;;;;;;;4.88;1.05;;;;;;;;;;5116768;27;20036;-81
2022/12/08 14:13:33;;;;;;;2.28;1.00;;;;;;;;;;5135070;27;20015;-80
2022/12/08 14:15:59;;;;;;;2.15;1.10;;;;;;;;;;5116556;27;20019;-81
2022/12/08 14:18:26;;;;;;;3.20;1.52;;;;;;;;;;5096831;27;20761;-80
2022/12/08 14:21:19;;;;;;;2.63;1.50;;;;;;;;;;5114397;28;20493;-81
2022/12/08 14:23:45;;;;;;;1.98;1.35;;;;;;;;;;5110012;28;20539;-80
2022/12/08 14:26:12;;;;;;;3.42;1.58;;;;;;;;;;5123744;27;20076;-81
2022/12/08 14:28:38;;;;;;;5.97;2.20;;;;;;;;;;5134341;27;20023;-82
2022/12/08 14:31:05;;;;;;;3.25;2.20;;;;;;;;;;5098830;27;20034;-82
2022/12/08 14:33:31;;;;;;;3.47;2.20;;;;;;;;;;5116457;27;20418;-82
2022/12/08 14:35:57;;;;;;;5.45;2.10;;;;;;;;;;5115785;27;20456;-81
2022/12/08 14:38:25;;;;;;;5.30;2.38;;;;;;;;;;5116046;27;20372;-82
2022/12/08 14:41:01;;;;;;;12.25;3.58;;;;;;;;;;5115239;27;20019;-82
2022/12/08 14:43:28;;;;;;;7.90;3.47;;;;;;;;;;5115778;27;20027;-81
2022/12/08 14:46:01;;;;;;;5.43;3.30;;;;;;;;;;5115840;27;20404;-82
2022/12/08 14:48:26;;;;;;;;;;;;;;;;;;5115939;27;20055;-82
2022/12/08 14:50:55;;;;;;;5.30;3.10;;;;;;;;;;5134374;27;19942;-81
2022/12/08 14:53:22;;;;;;;7.30;3.08;;;;;;;;;;5115292;27;20053;-82
2022/12/08 14:55:48;;;;;;;4.47;3.47;;;;;;;;;;5115689;27;20031;-81